createdAt,value
2022-11-19T00:00:42.628Z,73.08
2022-11-19T00:01:42.622Z,73.53
2022-11-19T00:02:42.605Z,73.29
2022-11-19T00:03:42.594Z,73.08
2022-11-19T00:04:42.590Z,73.11
2022-11-19T00:05:42.578Z,73.29
2022-11-19T00:06:42.558Z,72.98
2022-11-19T00:07:42.548Z,73.63
2022-11-19T00:08:42.550Z,73.81
2022-11-19T00:09:42.536Z,73.08
2022-11-19T00:10:42.520Z,73.32
2022-11-19T00:11:42.509Z,73.6
2022-11-19T00:12:42.495Z,73.32
2022-11-19T00:13:42.488Z,73.39
2022-11-19T00:14:42.489Z,73.19
2022-11-19T00:15:42.468Z,72.91
2022-11-19T00:16:42.476Z,73.22
2022-11-19T00:17:42.445Z,73.25
2022-11-19T00:18:42.437Z,73.63
2022-11-19T00:19:42.429Z,73.53
2022-11-19T00:20:42.412Z,73.32
2022-11-19T00:21:42.425Z,73.57
2022-11-19T00:22:42.397Z,73.67
2022-11-19T00:23:42.382Z,73.57
2022-11-19T00:24:42.370Z,73.43
2022-11-19T00:25:42.356Z,73.67
2022-11-19T00:26:42.352Z,73.67
2022-11-19T00:27:42.341Z,73.63
2022-11-19T00:28:42.332Z,73.15
2022-11-19T00:29:42.326Z,73.57
2022-11-19T00:30:42.308Z,73.67
2022-11-19T00:31:42.294Z,73.74
2022-11-19T00:32:42.285Z,73.32
2022-11-19T00:33:42.286Z,73.01
2022-11-19T00:34:42.263Z,73.43
2022-11-19T00:35:42.260Z,73.46
2022-11-19T00:36:42.243Z,73.63
2022-11-19T00:37:42.233Z,73.22
2022-11-19T00:38:42.222Z,73.01
2022-11-19T00:39:42.223Z,72.81
2022-11-19T00:40:42.204Z,72.71
2022-11-19T00:41:42.192Z,72.91
2022-11-19T00:42:42.202Z,73.22
2022-11-19T00:43:42.173Z,73.22
2022-11-19T00:44:42.162Z,73.25
2022-11-19T00:45:42.153Z,73.32
2022-11-19T00:46:42.156Z,72.81
2022-11-19T00:47:42.152Z,72.39
2022-11-19T00:48:42.127Z,72.74
2022-11-19T00:49:42.112Z,72.84
2022-11-19T00:50:42.097Z,73.05
2022-11-19T00:51:42.092Z,73.15
2022-11-19T00:52:42.078Z,73.46
2022-11-19T00:53:42.063Z,73.36
2022-11-19T00:54:42.061Z,72.91
2022-11-19T00:55:42.056Z,72.53
2022-11-19T00:56:42.030Z,72.67
2022-11-19T00:57:42.047Z,73.49
2022-11-19T00:58:42.026Z,73.6
2022-11-19T00:59:42.009Z,73.7
2022-11-19T01:00:41.998Z,73.91
2022-11-19T01:01:41.981Z,73.91
2022-11-19T01:02:41.968Z,73.7
2022-11-19T01:03:41.969Z,73.98
2022-11-19T01:04:41.948Z,73.46
2022-11-19T01:05:41.934Z,73.25
2022-11-19T01:06:41.925Z,73.05
2022-11-19T01:07:41.918Z,72.94
2022-11-19T01:08:41.909Z,73.25
2022-11-19T01:09:41.899Z,73.46
2022-11-19T01:10:41.885Z,73.22
2022-11-19T01:11:41.878Z,72.94
2022-11-19T01:12:41.869Z,72.74
2022-11-19T01:13:41.855Z,72.56
2022-11-19T01:14:41.857Z,73.18
2022-11-19T01:15:41.848Z,73.05
2022-11-19T01:16:41.824Z,73.08
2022-11-19T01:17:41.811Z,73.6
2022-11-19T01:18:41.821Z,73.49
2022-11-19T01:19:41.793Z,73.39
2022-11-19T01:20:41.781Z,73.67
2022-11-19T01:21:41.770Z,73.36
2022-11-19T01:22:41.754Z,73.15
2022-11-19T01:23:41.773Z,73.05
2022-11-19T01:24:41.737Z,72.63
2022-11-19T01:25:41.726Z,72.84
2022-11-19T01:26:41.714Z,72.5
2022-11-19T01:27:41.704Z,72.39
2022-11-19T01:28:41.695Z,72.39
2022-11-19T01:29:41.684Z,72.11
2022-11-19T01:30:41.676Z,72.11
2022-11-19T01:31:41.659Z,72.42
2022-11-19T01:32:41.650Z,72.39
2022-11-19T01:33:41.644Z,72.6
2022-11-19T01:34:41.632Z,72.29
2022-11-19T01:35:41.627Z,72.32
2022-11-19T01:36:41.607Z,72.32
2022-11-19T01:37:41.598Z,72.32
2022-11-19T01:38:41.588Z,72.32
2022-11-19T01:39:41.580Z,72.63
2022-11-19T01:40:41.577Z,72.42
2022-11-19T01:41:41.568Z,72.42
2022-11-19T01:42:41.546Z,72.42
2022-11-19T01:43:41.537Z,72.46
2022-11-19T01:44:41.530Z,72.56
2022-11-19T01:45:41.513Z,72.36
2022-11-19T01:46:41.504Z,72.77
2022-11-19T01:47:41.496Z,72.88
2022-11-19T01:48:41.483Z,72.88
2022-11-19T01:49:41.492Z,72.98
2022-11-19T01:50:41.459Z,72.46
2022-11-19T01:51:41.459Z,72.36
2022-11-19T01:52:41.450Z,72.77
2022-11-19T01:53:48.045Z,72.67
2022-11-19T01:54:41.422Z,72.53
2022-11-19T01:55:41.430Z,72.53
2022-11-19T01:56:41.398Z,72.11
2022-11-19T01:57:41.391Z,71.77
2022-11-19T01:58:41.385Z,71.39
2022-11-19T01:59:41.374Z,71.56
2022-11-19T02:00:41.365Z,71.46
2022-11-19T02:01:41.352Z,71.7
2022-11-19T02:02:41.338Z,71.7
2022-11-19T02:03:41.334Z,71.36
2022-11-19T02:04:41.336Z,71.59
2022-11-19T02:05:41.304Z,71.49
2022-11-19T02:06:41.308Z,71.39
2022-11-19T02:07:41.296Z,71.39
2022-11-19T02:08:41.271Z,71.28
2022-11-19T02:09:41.264Z,71.18
2022-11-19T02:10:41.255Z,71.28
2022-11-19T02:11:48.901Z,70.97
2022-11-19T02:12:41.308Z,71.08
2022-11-19T02:13:41.228Z,71.18
2022-11-19T02:14:41.205Z,71.28
2022-11-19T02:15:41.231Z,70.97
2022-11-19T02:16:41.197Z,71.18
2022-11-19T02:17:41.191Z,70.97
2022-11-19T02:18:41.177Z,70.97
2022-11-19T02:19:41.160Z,70.76
2022-11-19T02:20:41.177Z,71.18
2022-11-19T02:21:41.148Z,71.28
2022-11-19T02:22:41.141Z,70.87
2022-11-19T02:23:41.117Z,71.11
2022-11-19T02:24:41.119Z,71.28
2022-11-19T02:25:41.109Z,71.22
2022-11-19T02:26:41.080Z,71.08
2022-11-19T02:27:41.109Z,71.08
2022-11-19T02:28:41.084Z,71.53
2022-11-19T02:29:41.058Z,71.18
2022-11-19T02:30:41.064Z,71.56
2022-11-19T02:31:41.030Z,72.05
2022-11-19T02:32:41.049Z,71.63
2022-11-19T02:33:41.025Z,71.28
2022-11-19T02:34:40.995Z,71.08
2022-11-19T02:35:41.017Z,70.97
2022-11-19T02:36:40.993Z,71.28
2022-11-19T02:37:41.001Z,71.32
2022-11-19T02:38:40.954Z,71.49
2022-11-19T02:39:40.988Z,71.32
2022-11-19T02:40:40.943Z,71.11
2022-11-19T02:41:41.094Z,71.53
2022-11-19T02:42:40.928Z,71.11
2022-11-19T02:43:40.903Z,71.53
2022-11-19T02:44:40.894Z,71.42
2022-11-19T02:45:40.890Z,71.42
2022-11-19T02:46:40.874Z,71.66
2022-11-19T02:47:40.862Z,72.18
2022-11-19T02:48:40.875Z,72.08
2022-11-19T02:49:40.845Z,72.08
2022-11-19T02:50:40.846Z,71.73
2022-11-19T02:51:40.827Z,71.53
2022-11-19T02:52:40.812Z,71.87
2022-11-19T02:53:40.811Z,71.94
2022-11-19T02:54:40.791Z,71.77
2022-11-19T02:55:40.780Z,72.01
2022-11-19T02:56:40.777Z,72.28
2022-11-19T02:57:40.759Z,71.77
2022-11-19T02:58:40.746Z,72.32
2022-11-19T02:59:40.749Z,72.84
2022-11-19T03:00:40.733Z,73.25
2022-11-19T03:01:40.718Z,72.91
2022-11-19T03:02:40.715Z,72.8
2022-11-19T03:03:40.701Z,72.49
2022-11-19T03:04:40.686Z,72.46
2022-11-19T03:05:40.671Z,72.15
2022-11-19T03:06:40.666Z,71.87
2022-11-19T03:07:40.671Z,72.18
2022-11-19T03:08:40.644Z,0
2022-11-19T03:09:40.631Z,0
2022-11-19T03:10:40.626Z,0
2022-11-19T03:11:40.614Z,72.94
2022-11-19T03:12:40.607Z,0
2022-11-19T03:13:40.843Z,0
2022-11-19T03:14:40.583Z,0
2022-11-19T03:15:40.568Z,0
2022-11-19T03:16:40.577Z,0
2022-11-19T03:17:40.546Z,0
2022-11-19T03:18:40.551Z,0
2022-11-19T03:19:40.555Z,73.7
2022-11-19T03:20:40.515Z,73.36
2022-11-19T03:21:40.531Z,73.28
2022-11-19T03:22:40.499Z,73.08
2022-11-19T03:23:40.486Z,72.94
2022-11-19T03:24:40.480Z,0
2022-11-19T03:25:40.485Z,73.6
2022-11-19T03:26:40.467Z,0
2022-11-19T03:27:40.443Z,73.53
2022-11-19T03:28:40.433Z,73.49
2022-11-19T03:29:40.427Z,73.6
2022-11-19T03:30:40.420Z,73.39
2022-11-19T03:31:40.414Z,73.15
2022-11-19T03:32:40.392Z,72.84
2022-11-19T03:33:40.387Z,72.87
2022-11-19T03:34:40.377Z,72.97
2022-11-19T03:35:40.368Z,72.97
2022-11-19T03:36:40.356Z,72.87
2022-11-19T03:37:40.361Z,0
2022-11-19T03:38:40.330Z,73.22
2022-11-19T03:39:40.324Z,73.53
2022-11-19T03:40:40.306Z,73.43
2022-11-19T03:41:40.331Z,73.63
2022-11-19T03:42:40.339Z,73.53
2022-11-19T03:43:40.280Z,73.53
2022-11-19T03:44:40.263Z,73.32
2022-11-19T03:45:40.259Z,73.87
2022-11-19T03:46:40.273Z,73.87
2022-11-19T03:47:40.240Z,73.87
2022-11-19T03:48:40.235Z,74.29
2022-11-19T03:49:40.222Z,74.18
2022-11-19T03:50:40.211Z,73.77
2022-11-19T03:51:40.194Z,74.18
2022-11-19T03:52:40.188Z,74.08
2022-11-19T03:53:40.171Z,74.08
2022-11-19T03:54:40.168Z,74.11
2022-11-19T03:55:40.161Z,0
2022-11-19T03:56:40.139Z,0
2022-11-19T03:57:40.128Z,74.67
2022-11-19T03:58:40.134Z,75.09
2022-11-19T03:59:40.110Z,74.95
2022-11-19T04:00:40.098Z,74.53
2022-11-19T04:01:40.124Z,74.74
2022-11-19T04:02:40.084Z,74.43
2022-11-19T04:03:40.066Z,74.32
2022-11-19T04:04:40.054Z,74.22
2022-11-19T04:05:40.049Z,74.11
2022-11-19T04:06:40.044Z,74.01
2022-11-19T04:07:40.032Z,73.7
2022-11-19T04:08:40.014Z,74.01
2022-11-19T04:09:40.007Z,74.04
2022-11-19T04:10:40.036Z,74.15
2022-11-19T04:11:40.056Z,74.01
2022-11-19T04:12:39.991Z,73.63
2022-11-19T04:13:40.017Z,73.63
2022-11-19T04:14:40.012Z,73.63
2022-11-19T04:15:39.939Z,0
2022-11-19T04:16:39.937Z,0
2022-11-19T04:17:39.917Z,73.8
2022-11-19T04:18:39.908Z,73.39
2022-11-19T04:19:39.897Z,73.8
2022-11-19T04:20:39.906Z,73.6
2022-11-19T04:21:39.891Z,73.42
2022-11-19T04:22:39.881Z,73.42
2022-11-19T04:23:39.864Z,73.52
2022-11-19T04:24:39.847Z,73.39
2022-11-19T04:25:39.836Z,0
2022-11-19T04:26:39.828Z,73.28
2022-11-19T04:27:39.815Z,73.07
2022-11-19T04:28:39.824Z,72.86
2022-11-19T04:29:39.816Z,0
2022-11-19T04:30:39.792Z,72.03
2022-11-19T04:31:39.776Z,72.28
2022-11-19T04:32:39.762Z,72.8
2022-11-19T04:33:39.755Z,72.55
2022-11-19T04:34:39.742Z,72.34
2022-11-19T04:35:39.743Z,72.28
2022-11-19T04:36:39.728Z,72.17
2022-11-19T04:37:39.726Z,72.24
2022-11-19T04:38:39.703Z,72.14
2022-11-19T04:39:39.690Z,72.38
2022-11-19T04:40:39.696Z,72.59
2022-11-19T04:41:39.672Z,72.49
2022-11-19T04:42:39.670Z,72.17
2022-11-19T04:43:39.650Z,72.17
2022-11-19T04:44:39.636Z,72.38
2022-11-19T04:45:39.625Z,72.17
2022-11-19T04:46:39.620Z,72.17
2022-11-19T04:47:39.606Z,71.65
2022-11-19T04:48:39.595Z,0
2022-11-19T04:49:39.666Z,71.69
2022-11-19T04:50:39.580Z,72.1
2022-11-19T04:51:39.566Z,72.62
2022-11-19T04:52:39.558Z,72.38
2022-11-19T04:53:39.547Z,72.2
2022-11-19T04:54:39.531Z,72.31
2022-11-19T04:55:39.525Z,72.31
2022-11-19T04:56:39.515Z,72.2
2022-11-19T04:57:39.518Z,71.89
2022-11-19T04:58:39.492Z,72.24
2022-11-19T04:59:39.479Z,72.66
2022-11-19T05:00:39.475Z,72.66
2022-11-19T05:01:39.471Z,72.72
2022-11-19T05:02:39.451Z,72.2
2022-11-19T05:03:39.442Z,72.2
2022-11-19T05:04:39.450Z,72.07
2022-11-19T05:05:39.417Z,72
2022-11-19T05:06:39.412Z,72
2022-11-19T05:07:39.394Z,72
2022-11-19T05:08:39.408Z,72
2022-11-19T05:09:39.386Z,71.89
2022-11-19T05:10:39.363Z,72.03
2022-11-19T05:11:39.356Z,72.41
2022-11-19T05:12:39.352Z,71.89
2022-11-19T05:13:39.333Z,72.55
2022-11-19T05:14:39.327Z,72.66
2022-11-19T05:15:39.318Z,73.18
2022-11-19T05:16:39.305Z,73.18
2022-11-19T05:17:39.296Z,73.28
2022-11-19T05:18:39.280Z,73.07
2022-11-19T05:19:39.275Z,72.72
2022-11-19T05:20:39.260Z,72.41
2022-11-19T05:21:39.278Z,72.31
2022-11-19T05:22:39.237Z,72.24
2022-11-19T05:23:39.232Z,72.31
2022-11-19T05:26:13.954Z,71.72
2022-11-19T05:27:12.804Z,72.24
2022-11-19T05:28:12.810Z,72.34
2022-11-19T05:29:20.465Z,72.27
2022-11-19T05:30:21.381Z,72.48
2022-11-19T05:31:12.792Z,72.79
2022-11-19T05:32:20.346Z,72.27
2022-11-19T05:33:12.758Z,72.58
2022-11-19T05:34:20.437Z,72.79
2022-11-19T05:35:12.754Z,72.58
2022-11-19T05:36:12.852Z,73
2022-11-19T05:37:12.716Z,72.79
2022-11-19T05:38:12.798Z,72.79
2022-11-19T05:39:12.693Z,72.48
2022-11-19T05:40:12.685Z,72.58
2022-11-19T05:41:12.677Z,72.58
2022-11-19T05:42:12.668Z,72.79
2022-11-19T05:43:12.671Z,72.69
2022-11-19T05:44:12.635Z,73.03
2022-11-19T05:45:12.631Z,73.24
2022-11-19T05:46:12.635Z,73.14
2022-11-19T05:47:12.602Z,73.14
2022-11-19T05:48:12.593Z,73.21
2022-11-19T05:49:12.583Z,73
2022-11-19T05:50:12.577Z,72.83
2022-11-19T05:51:12.564Z,73.55
2022-11-19T05:52:12.552Z,73.86
2022-11-19T05:53:12.550Z,73.45
2022-11-19T05:54:12.533Z,73.86
2022-11-19T05:55:12.520Z,73.55
2022-11-19T05:56:12.531Z,73.14
2022-11-19T05:57:12.500Z,73.14
2022-11-19T05:58:12.487Z,73.66
2022-11-19T05:59:12.483Z,73.24
2022-11-19T06:00:12.472Z,73.24
2022-11-19T06:01:12.460Z,72.93
2022-11-19T06:02:12.456Z,73.03
2022-11-19T06:03:12.438Z,72.69
2022-11-19T06:04:12.433Z,72.51
2022-11-19T06:05:12.419Z,72.83
2022-11-19T06:06:12.407Z,72.83
2022-11-19T06:07:12.393Z,72.96
2022-11-19T06:08:12.396Z,73.38
2022-11-19T06:09:12.379Z,73.49
2022-11-19T06:10:12.368Z,73.59
2022-11-19T06:11:12.353Z,73.69
2022-11-19T06:12:12.342Z,73.27
2022-11-19T06:13:12.333Z,73.59
2022-11-19T06:14:12.333Z,73.72
2022-11-19T06:15:12.319Z,73.69
2022-11-19T06:16:12.301Z,73.59
2022-11-19T06:17:12.290Z,73.07
2022-11-19T06:18:12.288Z,73.03
2022-11-19T06:19:12.276Z,72.96
2022-11-19T06:20:12.271Z,73.49
2022-11-19T06:21:12.251Z,73.35
2022-11-19T06:22:12.239Z,72.93
2022-11-19T06:23:12.236Z,73.27
2022-11-19T06:24:12.222Z,73.17
2022-11-19T06:25:12.212Z,73.27
2022-11-19T06:26:12.212Z,73.49
2022-11-19T06:27:12.191Z,73.24
2022-11-19T06:28:12.183Z,72.83
2022-11-19T06:29:12.170Z,72.62
2022-11-19T06:30:12.161Z,72.3
2022-11-19T06:31:12.148Z,72.65
2022-11-19T06:32:12.152Z,73.27
2022-11-19T06:33:12.130Z,73.38
2022-11-19T06:34:12.119Z,73.14
2022-11-19T06:35:12.152Z,73.03
2022-11-19T06:36:12.097Z,72.75
2022-11-19T06:37:12.130Z,73.62
2022-11-19T06:38:12.083Z,0
2022-11-19T06:39:12.097Z,0
2022-11-19T06:40:12.068Z,0
2022-11-19T06:41:12.045Z,0
2022-11-19T06:42:12.039Z,0
2022-11-19T06:43:12.041Z,0
2022-11-19T06:44:12.015Z,0
2022-11-19T06:45:12.009Z,0
2022-11-19T06:46:11.997Z,0
2022-11-19T06:47:11.986Z,0
2022-11-19T06:48:11.973Z,0
2022-11-19T06:49:11.969Z,0
2022-11-19T06:50:11.964Z,0
2022-11-19T06:51:11.947Z,0
2022-11-19T06:52:11.933Z,73.59
2022-11-19T06:53:11.922Z,0
2022-11-19T06:54:11.914Z,0
2022-11-19T06:55:11.917Z,0
2022-11-19T06:56:11.914Z,0
2022-11-19T06:57:11.891Z,0
2022-11-19T06:58:11.900Z,0
2022-11-19T06:59:11.905Z,0
2022-11-19T07:00:11.916Z,0
2022-11-19T07:01:11.899Z,0
2022-11-19T07:02:11.828Z,0
2022-11-19T07:03:11.816Z,0
2022-11-19T07:04:11.824Z,0
2022-11-19T07:05:11.799Z,0
2022-11-19T07:06:11.789Z,0
2022-11-19T07:07:11.777Z,0
2022-11-19T07:08:11.764Z,0
2022-11-19T07:09:11.767Z,0
2022-11-19T07:10:11.744Z,0
2022-11-19T07:11:11.832Z,0
2022-11-19T07:12:11.861Z,0
2022-11-19T07:13:11.720Z,0
2022-11-19T07:14:11.719Z,0
2022-11-19T07:15:11.694Z,0
2022-11-19T07:16:11.694Z,0
2022-11-19T07:17:11.674Z,0
2022-11-19T07:18:11.677Z,0
2022-11-19T07:19:11.657Z,0
2022-11-19T07:20:11.644Z,0
2022-11-19T07:21:11.631Z,0
2022-11-19T07:22:11.621Z,0
2022-11-19T07:23:11.613Z,0
2022-11-19T07:24:11.619Z,0
2022-11-19T07:25:11.589Z,0
2022-11-19T07:26:11.585Z,0
2022-11-19T07:27:11.574Z,0
2022-11-19T07:28:11.564Z,0
2022-11-19T07:29:11.562Z,0
2022-11-19T07:30:11.570Z,0
2022-11-19T07:31:11.535Z,0
2022-11-19T07:32:11.522Z,0
2022-11-19T07:33:11.513Z,0
2022-11-19T07:34:11.514Z,0
2022-11-19T07:35:11.491Z,0
2022-11-19T07:36:11.491Z,0
2022-11-19T07:37:11.472Z,0
2022-11-19T07:38:11.469Z,0
2022-11-19T07:39:11.449Z,0
2022-11-19T07:40:11.451Z,0
2022-11-19T07:41:11.426Z,0
2022-11-19T07:42:11.423Z,0
2022-11-19T07:43:11.411Z,0
2022-11-19T07:44:11.399Z,0
2022-11-19T07:45:11.392Z,0
2022-11-19T07:46:11.376Z,0
2022-11-19T07:47:11.367Z,0
2022-11-19T07:48:11.360Z,0
2022-11-19T07:49:11.349Z,0
2022-11-19T07:50:11.338Z,0
2022-11-19T07:51:11.327Z,0
2022-11-19T07:52:11.317Z,0
2022-11-19T07:53:11.341Z,0
2022-11-19T07:54:11.299Z,0
2022-11-19T07:55:11.310Z,0
2022-11-19T07:56:11.277Z,0
2022-11-19T07:57:11.272Z,0
2022-11-19T07:58:11.258Z,0
2022-11-19T07:59:11.248Z,0
2022-11-19T08:00:11.242Z,0
2022-11-19T08:01:11.234Z,0
2022-11-19T08:02:11.212Z,0
2022-11-19T08:03:11.212Z,0
2022-11-19T08:04:11.198Z,0
2022-11-19T08:05:11.184Z,0
2022-11-19T08:06:11.198Z,0
2022-11-19T08:07:11.191Z,0
2022-11-19T08:08:11.155Z,0
2022-11-19T08:09:11.141Z,0
2022-11-19T08:10:11.130Z,0
2022-11-19T08:11:11.120Z,0
2022-11-19T08:12:11.107Z,0
2022-11-19T08:13:11.117Z,0
2022-11-19T08:14:11.093Z,0
2022-11-19T08:15:11.078Z,0
2022-11-19T08:16:11.077Z,0
2022-11-19T08:17:11.084Z,0
2022-11-19T08:18:11.074Z,0
2022-11-19T08:19:11.097Z,0
2022-11-19T08:20:11.056Z,0
2022-11-19T08:21:11.030Z,0
2022-11-19T08:22:11.008Z,0
2022-11-19T08:23:11.005Z,0
2022-11-19T08:24:10.991Z,0
2022-11-19T08:25:11.003Z,0
2022-11-19T08:26:10.970Z,0
2022-11-19T08:27:10.961Z,0
2022-11-19T08:28:10.950Z,0
2022-11-19T08:29:10.938Z,0
2022-11-19T08:30:10.924Z,0
2022-11-19T08:31:10.938Z,0
2022-11-19T08:32:10.944Z,0
2022-11-19T08:33:10.953Z,0
2022-11-19T08:34:10.883Z,0
2022-11-19T08:35:10.931Z,0
2022-11-19T08:36:10.873Z,0
2022-11-19T08:37:10.924Z,0
2022-11-19T08:38:10.877Z,0
2022-11-19T08:39:10.846Z,0
2022-11-19T08:40:10.882Z,0
2022-11-19T08:41:10.859Z,0
2022-11-19T08:42:10.937Z,0
2022-11-19T08:43:18.645Z,0
2022-11-19T08:44:10.821Z,0
2022-11-19T08:45:10.818Z,0
2022-11-19T08:46:10.841Z,0
2022-11-19T08:47:10.824Z,0
2022-11-19T08:48:11.038Z,0
2022-11-19T08:49:10.770Z,0
2022-11-19T08:50:10.731Z,0
2022-11-19T08:51:10.728Z,0
